sensor_id;sensor_type;location;lat;lon;timestamp;pressure;altitude;pressure_sealevel;temperature;humidity
9077;BME280;4574;51.072;17.174;2023-05-03T00:01:18;100975.88;;;13.01;100.00
9077;BME280;4574;51.072;17.174;2023-05-03T00:03:52;100969.47;;;12.94;100.00
9077;BME280;4574;51.072;17.174;2023-05-03T00:06:20;100969.47;;;13.04;100.00
9077;BME280;4574;51.072;17.174;2023-05-03T00:08:49;100976.47;;;13.05;100.00
9077;BME280;4574;51.072;17.174;2023-05-03T00:11:18;100975.31;;;13.07;100.00
9077;BME280;4574;51.072;17.174;2023-05-03T00:13:47;100975.31;;;13.07;100.00
9077;BME280;4574;51.072;17.174;2023-05-03T00:16:15;100973.97;;;12.94;100.00
9077;BME280;4574;51.072;17.174;2023-05-03T00:18:44;100985.69;;;13.01;100.00
9077;BME280;4574;51.072;17.174;2023-05-03T00:21:16;100980.22;;;12.83;100.00
9077;BME280;4574;51.072;17.174;2023-05-03T00:23:45;100988.19;;;12.83;100.00
9077;BME280;4574;51.072;17.174;2023-05-03T00:26:13;100994.09;;;12.68;100.00
9077;BME280;4574;51.072;17.174;2023-05-03T00:28:42;100994.38;;;12.55;100.00
9077;BME280;4574;51.072;17.174;2023-05-03T00:31:11;100992.84;;;12.62;100.00
9077;BME280;4574;51.072;17.174;2023-05-03T00:33:40;100991.59;;;12.47;100.00
9077;BME280;4574;51.072;17.174;2023-05-03T00:36:10;100993.94;;;12.41;100.00
9077;BME280;4574;51.072;17.174;2023-05-03T00:38:41;100980.41;;;12.44;100.00
9077;BME280;4574;51.072;17.174;2023-05-03T00:41:10;100990.19;;;12.53;100.00
9077;BME280;4574;51.072;17.174;2023-05-03T00:43:39;100992.69;;;12.45;100.00
9077;BME280;4574;51.072;17.174;2023-05-03T00:46:08;100993.56;;;12.45;100.00
9077;BME280;4574;51.072;17.174;2023-05-03T00:48:43;100991.31;;;12.41;100.00
9077;BME280;4574;51.072;17.174;2023-05-03T00:51:13;100991.59;;;12.28;100.00
9077;BME280;4574;51.072;17.174;2023-05-03T00:53:44;101000.22;;;12.11;100.00
9077;BME280;4574;51.072;17.174;2023-05-03T00:56:15;100994.91;;;12.02;100.00
9077;BME280;4574;51.072;17.174;2023-05-03T00:58:47;101004.53;;;11.94;100.00
9077;BME280;4574;51.072;17.174;2023-05-03T01:01:15;101007.69;;;11.88;100.00
9077;BME280;4574;51.072;17.174;2023-05-03T01:03:44;101003.81;;;11.92;100.00
9077;BME280;4574;51.072;17.174;2023-05-03T01:06:21;101012.72;;;11.81;100.00
9077;BME280;4574;51.072;17.174;2023-05-03T01:09:02;101013.28;;;11.85;100.00
9077;BME280;4574;51.072;17.174;2023-05-03T01:11:38;101011.88;;;11.81;99.73
9077;BME280;4574;51.072;17.174;2023-05-03T01:14:15;101017.44;;;11.78;100.00
9077;BME280;4574;51.072;17.174;2023-05-03T01:16:52;101017.88;;;11.83;100.00
9077;BME280;4574;51.072;17.174;2023-05-03T01:19:27;101010.50;;;11.86;100.00
9077;BME280;4574;51.072;17.174;2023-05-03T01:22:02;101023.94;;;11.94;100.00
9077;BME280;4574;51.072;17.174;2023-05-03T01:24:40;101022.47;;;11.81;100.00
9077;BME280;4574;51.072;17.174;2023-05-03T01:27:10;101023.88;;;11.85;100.00
9077;BME280;4574;51.072;17.174;2023-05-03T01:29:39;101026.72;;;11.93;100.00
9077;BME280;4574;51.072;17.174;2023-05-03T01:32:11;101020.44;;;11.94;100.00
9077;BME280;4574;51.072;17.174;2023-05-03T01:34:49;101023.53;;;11.99;100.00
9077;BME280;4574;51.072;17.174;2023-05-03T01:37:19;101032.03;;;12.02;99.55
9077;BME280;4574;51.072;17.174;2023-05-03T01:39:49;101029.50;;;11.91;99.73
9077;BME280;4574;51.072;17.174;2023-05-03T01:42:21;101024.91;;;11.93;100.00
9077;BME280;4574;51.072;17.174;2023-05-03T01:44:54;101029.03;;;11.77;100.00
9077;BME280;4574;51.072;17.174;2023-05-03T01:47:22;101032.81;;;11.84;100.00
9077;BME280;4574;51.072;17.174;2023-05-03T01:49:52;101033.66;;;11.84;100.00
9077;BME280;4574;51.072;17.174;2023-05-03T01:52:22;101039.53;;;11.88;100.00
9077;BME280;4574;51.072;17.174;2023-05-03T01:54:51;101041.94;;;11.91;100.00
9077;BME280;4574;51.072;17.174;2023-05-03T01:57:21;101037.69;;;11.79;100.00
9077;BME280;4574;51.072;17.174;2023-05-03T01:59:50;101037.69;;;11.79;100.00
9077;BME280;4574;51.072;17.174;2023-05-03T02:02:18;101027.72;;;11.62;99.73
9077;BME280;4574;51.072;17.174;2023-05-03T02:04:47;101047.53;;;11.58;100.00
9077;BME280;4574;51.072;17.174;2023-05-03T02:07:15;101052.81;;;11.58;100.00
9077;BME280;4574;51.072;17.174;2023-05-03T02:09:44;101040.53;;;11.57;100.00
9077;BME280;4574;51.072;17.174;2023-05-03T02:12:12;101043.56;;;11.52;100.00
9077;BME280;4574;51.072;17.174;2023-05-03T02:14:43;101051.84;;;11.59;100.00
9077;BME280;4574;51.072;17.174;2023-05-03T02:17:11;101043.84;;;11.49;100.00
9077;BME280;4574;51.072;17.174;2023-05-03T02:19:40;101053.69;;;11.58;100.00
9077;BME280;4574;51.072;17.174;2023-05-03T02:22:09;101058.63;;;11.52;100.00
9077;BME280;4574;51.072;17.174;2023-05-03T02:24:37;101049.59;;;11.34;99.63
9077;BME280;4574;51.072;17.174;2023-05-03T02:27:06;101053.22;;;11.33;100.00
9077;BME280;4574;51.072;17.174;2023-05-03T02:29:34;101053.94;;;11.35;100.00
9077;BME280;4574;51.072;17.174;2023-05-03T02:32:05;101055.44;;;11.28;100.00
9077;BME280;4574;51.072;17.174;2023-05-03T02:34:34;101048.97;;;11.21;99.79
9077;BME280;4574;51.072;17.174;2023-05-03T02:37:03;101056.09;;;11.20;100.00
9077;BME280;4574;51.072;17.174;2023-05-03T02:39:32;101047.50;;;11.07;100.00
9077;BME280;4574;51.072;17.174;2023-05-03T02:42:00;101053.13;;;11.14;99.80
9077;BME280;4574;51.072;17.174;2023-05-03T02:44:29;101065.59;;;11.23;99.31
9077;BME280;4574;51.072;17.174;2023-05-03T02:46:59;101047.81;;;11.14;100.00
9077;BME280;4574;51.072;17.174;2023-05-03T02:49:29;101056.22;;;11.19;100.00
9077;BME280;4574;51.072;17.174;2023-05-03T02:51:57;101061.22;;;11.12;100.00
9077;BME280;4574;51.072;17.174;2023-05-03T02:54:26;101074.06;;;11.17;100.00
9077;BME280;4574;51.072;17.174;2023-05-03T02:56:54;101070.13;;;11.11;100.00
9077;BME280;4574;51.072;17.174;2023-05-03T02:59:23;101055.38;;;10.98;100.00
9077;BME280;4574;51.072;17.174;2023-05-03T03:01:51;101074.13;;;11.06;100.00
9077;BME280;4574;51.072;17.174;2023-05-03T03:04:20;101067.19;;;10.94;100.00
9077;BME280;4574;51.072;17.174;2023-05-03T03:06:51;101065.06;;;10.88;100.00
9077;BME280;4574;51.072;17.174;2023-05-03T03:09:20;101064.16;;;10.78;100.00
9077;BME280;4574;51.072;17.174;2023-05-03T03:11:49;101074.53;;;10.70;100.00
9077;BME280;4574;51.072;17.174;2023-05-03T03:14:19;101069.34;;;10.48;100.00
9077;BME280;4574;51.072;17.174;2023-05-03T03:16:50;101065.00;;;10.47;100.00
9077;BME280;4574;51.072;17.174;2023-05-03T03:19:19;101072.22;;;10.45;100.00
9077;BME280;4574;51.072;17.174;2023-05-03T03:21:47;101079.41;;;10.54;100.00
9077;BME280;4574;51.072;17.174;2023-05-03T03:24:18;101079.94;;;10.68;100.00
9077;BME280;4574;51.072;17.174;2023-05-03T03:26:46;101079.84;;;10.70;100.00
9077;BME280;4574;51.072;17.174;2023-05-03T03:29:15;101080.59;;;10.61;100.00
9077;BME280;4574;51.072;17.174;2023-05-03T03:31:43;101081.84;;;10.46;100.00
9077;BME280;4574;51.072;17.174;2023-05-03T03:34:12;101085.50;;;10.34;100.00
9077;BME280;4574;51.072;17.174;2023-05-03T03:36:41;101085.28;;;10.26;99.89
9077;BME280;4574;51.072;17.174;2023-05-03T03:39:09;101082.38;;;10.18;100.00
9077;BME280;4574;51.072;17.174;2023-05-03T03:41:39;101081.44;;;10.08;100.00
9077;BME280;4574;51.072;17.174;2023-05-03T03:44:08;101077.31;;;9.93;100.00
9077;BME280;4574;51.072;17.174;2023-05-03T03:46:37;101079.25;;;9.91;100.00
9077;BME280;4574;51.072;17.174;2023-05-03T03:49:06;101078.53;;;9.89;100.00
9077;BME280;4574;51.072;17.174;2023-05-03T03:51:35;101093.19;;;9.82;100.00
9077;BME280;4574;51.072;17.174;2023-05-03T03:54:04;101093.09;;;9.95;100.00
9077;BME280;4574;51.072;17.174;2023-05-03T03:56:33;101089.59;;;9.94;100.00
9077;BME280;4574;51.072;17.174;2023-05-03T03:59:04;101084.78;;;9.88;100.00
9077;BME280;4574;51.072;17.174;2023-05-03T04:01:34;101094.66;;;9.86;100.00
9077;BME280;4574;51.072;17.174;2023-05-03T04:04:03;101097.28;;;9.86;100.00
9077;BME280;4574;51.072;17.174;2023-05-03T04:06:32;101104.25;;;9.87;100.00
9077;BME280;4574;51.072;17.174;2023-05-03T04:09:01;101105.47;;;9.83;100.00
9077;BME280;4574;51.072;17.174;2023-05-03T04:11:29;101105.69;;;9.80;100.00
9077;BME280;4574;51.072;17.174;2023-05-03T04:13:58;101102.22;;;9.58;100.00
9077;BME280;4574;51.072;17.174;2023-05-03T04:16:29;101106.78;;;9.56;100.00
9077;BME280;4574;51.072;17.174;2023-05-03T04:18:57;101110.50;;;9.53;100.00
9077;BME280;4574;51.072;17.174;2023-05-03T04:21:26;101108.56;;;9.55;100.00
9077;BME280;4574;51.072;17.174;2023-05-03T04:23:55;101117.47;;;9.54;100.00
9077;BME280;4574;51.072;17.174;2023-05-03T04:26:23;101121.22;;;9.63;100.00
9077;BME280;4574;51.072;17.174;2023-05-03T04:28:57;101124.81;;;9.62;100.00
9077;BME280;4574;51.072;17.174;2023-05-03T04:31:25;101124.19;;;9.58;100.00
9077;BME280;4574;51.072;17.174;2023-05-03T04:33:56;101123.72;;;9.53;100.00
9077;BME280;4574;51.072;17.174;2023-05-03T04:36:25;101129.22;;;9.39;100.00
9077;BME280;4574;51.072;17.174;2023-05-03T04:38:56;101128.09;;;9.31;100.00
9077;BME280;4574;51.072;17.174;2023-05-03T04:41:25;101138.06;;;9.27;100.00
9077;BME280;4574;51.072;17.174;2023-05-03T04:43:53;101138.19;;;9.26;100.00
9077;BME280;4574;51.072;17.174;2023-05-03T04:46:22;101143.81;;;9.22;100.00
9077;BME280;4574;51.072;17.174;2023-05-03T04:48:50;101145.78;;;9.30;100.00
9077;BME280;4574;51.072;17.174;2023-05-03T04:51:20;101140.47;;;9.30;100.00
9077;BME280;4574;51.072;17.174;2023-05-03T04:53:49;101139.50;;;9.21;100.00
9077;BME280;4574;51.072;17.174;2023-05-03T04:56:18;101148.88;;;9.25;100.00
9077;BME280;4574;51.072;17.174;2023-05-03T04:58:52;101159.47;;;9.35;100.00
9077;BME280;4574;51.072;17.174;2023-05-03T05:01:21;101157.53;;;9.27;100.00
9077;BME280;4574;51.072;17.174;2023-05-03T05:03:54;101159.22;;;9.27;100.00
9077;BME280;4574;51.072;17.174;2023-05-03T05:06:24;101147.22;;;9.34;100.00
9077;BME280;4574;51.072;17.174;2023-05-03T05:08:53;101160.94;;;9.39;100.00
9077;BME280;4574;51.072;17.174;2023-05-03T05:11:22;101159.47;;;9.35;100.00
9077;BME280;4574;51.072;17.174;2023-05-03T05:13:52;101162.22;;;9.34;100.00
9077;BME280;4574;51.072;17.174;2023-05-03T05:16:21;101159.81;;;9.31;100.00
9077;BME280;4574;51.072;17.174;2023-05-03T05:18:49;101163.88;;;9.24;100.00
9077;BME280;4574;51.072;17.174;2023-05-03T05:21:18;101167.38;;;9.25;100.00
9077;BME280;4574;51.072;17.174;2023-05-03T05:23:48;101175.44;;;9.34;100.00
9077;BME280;4574;51.072;17.174;2023-05-03T05:26:17;101181.84;;;9.42;100.00
9077;BME280;4574;51.072;17.174;2023-05-03T05:28:46;101181.38;;;9.48;100.00
9077;BME280;4574;51.072;17.174;2023-05-03T05:31:15;101165.66;;;9.47;100.00
9077;BME280;4574;51.072;17.174;2023-05-03T05:33:44;101184.03;;;9.59;100.00
9077;BME280;4574;51.072;17.174;2023-05-03T05:36:13;101184.78;;;9.72;100.00
9077;BME280;4574;51.072;17.174;2023-05-03T05:38:42;101195.13;;;9.75;100.00
9077;BME280;4574;51.072;17.174;2023-05-03T05:41:12;101182.28;;;9.71;100.00
9077;BME280;4574;51.072;17.174;2023-05-03T05:43:40;101196.44;;;9.70;100.00
9077;BME280;4574;51.072;17.174;2023-05-03T05:46:09;101197.50;;;9.67;100.00
9077;BME280;4574;51.072;17.174;2023-05-03T05:48:40;101189.34;;;9.70;100.00
9077;BME280;4574;51.072;17.174;2023-05-03T05:51:09;101208.34;;;9.75;100.00
9077;BME280;4574;51.072;17.174;2023-05-03T05:53:38;101214.13;;;9.80;100.00
9077;BME280;4574;51.072;17.174;2023-05-03T05:56:07;101215.94;;;9.80;100.00
9077;BME280;4574;51.072;17.174;2023-05-03T05:58:38;101220.13;;;9.82;100.00
9077;BME280;4574;51.072;17.174;2023-05-03T06:01:07;101215.34;;;9.87;100.00
9077;BME280;4574;51.072;17.174;2023-05-03T06:03:39;101222.78;;;9.93;100.00
9077;BME280;4574;51.072;17.174;2023-05-03T06:06:09;101217.25;;;9.85;100.00
9077;BME280;4574;51.072;17.174;2023-05-03T06:08:38;101223.88;;;9.91;100.00
9077;BME280;4574;51.072;17.174;2023-05-03T06:11:08;101223.75;;;9.92;100.00
9077;BME280;4574;51.072;17.174;2023-05-03T06:13:41;101237.69;;;9.94;100.00
9077;BME280;4574;51.072;17.174;2023-05-03T06:16:10;101229.03;;;9.92;100.00
9077;BME280;4574;51.072;17.174;2023-05-03T06:18:39;101223.28;;;9.98;100.00
9077;BME280;4574;51.072;17.174;2023-05-03T06:21:08;101227.25;;;9.93;100.00
9077;BME280;4574;51.072;17.174;2023-05-03T06:23:37;101228.25;;;10.03;100.00
9077;BME280;4574;51.072;17.174;2023-05-03T06:26:06;101240.69;;;10.24;100.00
9077;BME280;4574;51.072;17.174;2023-05-03T06:28:36;101239.97;;;10.33;100.00
9077;BME280;4574;51.072;17.174;2023-05-03T06:31:06;101245.72;;;10.49;100.00
9077;BME280;4574;51.072;17.174;2023-05-03T06:33:34;101249.19;;;10.61;99.98
9077;BME280;4574;51.072;17.174;2023-05-03T06:36:04;101241.84;;;10.75;100.00
9077;BME280;4574;51.072;17.174;2023-05-03T06:38:32;101243.63;;;10.85;98.28
9077;BME280;4574;51.072;17.174;2023-05-03T06:41:01;101240.50;;;10.80;98.14
9077;BME280;4574;51.072;17.174;2023-05-03T06:43:31;101244.59;;;10.84;98.44
9077;BME280;4574;51.072;17.174;2023-05-03T06:46:00;101234.59;;;10.88;98.71
9077;BME280;4574;51.072;17.174;2023-05-03T06:48:31;101257.22;;;10.92;98.47
9077;BME280;4574;51.072;17.174;2023-05-03T06:50:59;101247.09;;;10.97;98.80
9077;BME280;4574;51.072;17.174;2023-05-03T06:53:28;101257.31;;;11.12;97.99
9077;BME280;4574;51.072;17.174;2023-05-03T06:55:59;101254.75;;;11.11;97.01
9077;BME280;4574;51.072;17.174;2023-05-03T06:58:27;101258.13;;;11.13;97.05
9077;BME280;4574;51.072;17.174;2023-05-03T07:00:57;101264.28;;;11.13;96.41
9077;BME280;4574;51.072;17.174;2023-05-03T07:03:26;101249.22;;;11.14;97.12
9077;BME280;4574;51.072;17.174;2023-05-03T07:05:56;101248.94;;;11.28;96.90
9077;BME280;4574;51.072;17.174;2023-05-03T07:08:25;101253.00;;;11.32;96.39
9077;BME280;4574;51.072;17.174;2023-05-03T07:10:54;101260.66;;;11.46;96.24
9077;BME280;4574;51.072;17.174;2023-05-03T07:13:23;101258.47;;;11.51;94.86
9077;BME280;4574;51.072;17.174;2023-05-03T07:15:52;101254.38;;;11.58;94.78
9077;BME280;4574;51.072;17.174;2023-05-03T07:18:21;101252.63;;;11.68;93.85
9077;BME280;4574;51.072;17.174;2023-05-03T07:20:49;101258.31;;;11.84;93.79
9077;BME280;4574;51.072;17.174;2023-05-03T07:23:19;101261.91;;;11.94;94.59
9077;BME280;4574;51.072;17.174;2023-05-03T07:25:48;101247.69;;;11.95;90.81
9077;BME280;4574;51.072;17.174;2023-05-03T07:28:18;101250.34;;;12.24;90.60
9077;BME280;4574;51.072;17.174;2023-05-03T07:30:47;101250.44;;;12.43;90.10
9077;BME280;4574;51.072;17.174;2023-05-03T07:33:15;101228.41;;;12.52;88.57
9077;BME280;4574;51.072;17.174;2023-05-03T07:35:45;101244.50;;;12.60;88.18
9077;BME280;4574;51.072;17.174;2023-05-03T07:38:14;101249.91;;;12.49;88.69
9077;BME280;4574;51.072;17.174;2023-05-03T07:40:45;101236.19;;;12.44;89.17
9077;BME280;4574;51.072;17.174;2023-05-03T07:43:14;101252.03;;;12.55;90.05
9077;BME280;4574;51.072;17.174;2023-05-03T07:45:45;101252.72;;;12.57;89.19
9077;BME280;4574;51.072;17.174;2023-05-03T07:48:14;101249.81;;;12.60;84.82
9077;BME280;4574;51.072;17.174;2023-05-03T07:50:44;101249.81;;;12.70;85.74
9077;BME280;4574;51.072;17.174;2023-05-03T07:53:13;101230.41;;;12.69;81.44
9077;BME280;4574;51.072;17.174;2023-05-03T07:55:43;101245.56;;;12.88;79.99
9077;BME280;4574;51.072;17.174;2023-05-03T07:58:12;101245.41;;;12.80;77.18
9077;BME280;4574;51.072;17.174;2023-05-03T08:00:41;101240.56;;;12.94;78.28
9077;BME280;4574;51.072;17.174;2023-05-03T08:03:09;101243.25;;;13.13;77.91
9077;BME280;4574;51.072;17.174;2023-05-03T08:05:38;101236.97;;;13.33;76.23
9077;BME280;4574;51.072;17.174;2023-05-03T08:08:08;101235.56;;;13.48;75.89
9077;BME280;4574;51.072;17.174;2023-05-03T08:10:36;101234.88;;;13.65;75.62
9077;BME280;4574;51.072;17.174;2023-05-03T08:13:06;101218.34;;;13.71;77.13
9077;BME280;4574;51.072;17.174;2023-05-03T08:15:35;101225.19;;;13.73;75.40
9077;BME280;4574;51.072;17.174;2023-05-03T08:18:04;101244.41;;;13.67;70.94
9077;BME280;4574;51.072;17.174;2023-05-03T08:20:32;101227.75;;;13.28;68.85
9077;BME280;4574;51.072;17.174;2023-05-03T08:23:02;101236.56;;;13.28;70.56
9077;BME280;4574;51.072;17.174;2023-05-03T08:25:31;101248.59;;;13.41;73.58
9077;BME280;4574;51.072;17.174;2023-05-03T08:28:00;101246.50;;;13.54;73.51
9077;BME280;4574;51.072;17.174;2023-05-03T08:30:31;101246.78;;;13.61;70.42
9077;BME280;4574;51.072;17.174;2023-05-03T08:33:00;101247.63;;;13.61;67.78
9077;BME280;4574;51.072;17.174;2023-05-03T08:35:29;101250.56;;;13.68;71.14
9077;BME280;4574;51.072;17.174;2023-05-03T08:37:58;101250.28;;;13.71;65.20
9077;BME280;4574;51.072;17.174;2023-05-03T08:40:27;101254.06;;;13.78;67.17
9077;BME280;4574;51.072;17.174;2023-05-03T08:42:58;101259.34;;;13.97;67.93
9077;BME280;4574;51.072;17.174;2023-05-03T08:45:35;101253.03;;;14.17;66.96
9077;BME280;4574;51.072;17.174;2023-05-03T08:48:05;101252.59;;;14.21;64.83
9077;BME280;4574;51.072;17.174;2023-05-03T08:50:35;101247.47;;;14.47;62.42
9077;BME280;4574;51.072;17.174;2023-05-03T08:53:08;101250.44;;;14.71;64.55
9077;BME280;4574;51.072;17.174;2023-05-03T08:55:37;101243.41;;;14.96;61.95
9077;BME280;4574;51.072;17.174;2023-05-03T08:58:07;101251.97;;;15.00;65.26
9077;BME280;4574;51.072;17.174;2023-05-03T09:00:40;101250.81;;;15.02;61.12
9077;BME280;4574;51.072;17.174;2023-05-03T09:03:11;101252.84;;;14.91;63.44
9077;BME280;4574;51.072;17.174;2023-05-03T09:05:39;101248.06;;;14.94;61.97
9077;BME280;4574;51.072;17.174;2023-05-03T09:08:10;101252.31;;;14.87;62.84
9077;BME280;4574;51.072;17.174;2023-05-03T09:10:41;101251.00;;;14.74;61.97
9077;BME280;4574;51.072;17.174;2023-05-03T09:13:09;101256.31;;;14.74;64.61
9077;BME280;4574;51.072;17.174;2023-05-03T09:15:40;101254.53;;;14.65;62.79
9077;BME280;4574;51.072;17.174;2023-05-03T09:18:13;101244.22;;;14.53;64.97
9077;BME280;4574;51.072;17.174;2023-05-03T09:20:44;101260.38;;;14.42;62.98
9077;BME280;4574;51.072;17.174;2023-05-03T09:23:28;101255.41;;;14.20;65.59
9077;BME280;4574;51.072;17.174;2023-05-03T09:25:57;101246.38;;;14.40;65.92
9077;BME280;4574;51.072;17.174;2023-05-03T09:28:26;101248.25;;;14.57;63.04
9077;BME280;4574;51.072;17.174;2023-05-03T09:31:05;101255.28;;;14.84;65.06
9077;BME280;4574;51.072;17.174;2023-05-03T09:33:38;101255.19;;;15.21;69.14
9077;BME280;4574;51.072;17.174;2023-05-03T09:36:07;101259.72;;;15.38;64.13
9077;BME280;4574;51.072;17.174;2023-05-03T09:38:36;101252.41;;;15.57;60.63
9077;BME280;4574;51.072;17.174;2023-05-03T09:41:05;101258.50;;;15.67;60.51
9077;BME280;4574;51.072;17.174;2023-05-03T09:43:34;101257.28;;;15.79;60.82
9077;BME280;4574;51.072;17.174;2023-05-03T09:46:11;101249.66;;;15.84;56.81
9077;BME280;4574;51.072;17.174;2023-05-03T09:48:40;101249.03;;;15.90;61.65
9077;BME280;4574;51.072;17.174;2023-05-03T09:51:10;101250.94;;;16.06;60.12
9077;BME280;4574;51.072;17.174;2023-05-03T09:53:39;101251.84;;;16.14;60.73
9077;BME280;4574;51.072;17.174;2023-05-03T09:56:09;101257.34;;;15.87;54.82
9077;BME280;4574;51.072;17.174;2023-05-03T09:58:41;101247.03;;;15.92;61.46
9077;BME280;4574;51.072;17.174;2023-05-03T10:01:13;101251.31;;;15.85;62.75
9077;BME280;4574;51.072;17.174;2023-05-03T10:03:43;101249.31;;;15.87;67.03
9077;BME280;4574;51.072;17.174;2023-05-03T10:06:22;101240.13;;;16.32;68.97
9077;BME280;4574;51.072;17.174;2023-05-03T10:08:59;101246.50;;;16.65;64.09
9077;BME280;4574;51.072;17.174;2023-05-03T10:11:28;101240.75;;;16.93;66.20
9077;BME280;4574;51.072;17.174;2023-05-03T10:13:57;101234.78;;;17.07;63.98
9077;BME280;4574;51.072;17.174;2023-05-03T10:16:30;101240.69;;;17.27;64.29
9077;BME280;4574;51.072;17.174;2023-05-03T10:19:12;101240.75;;;17.43;64.74
9077;BME280;4574;51.072;17.174;2023-05-03T10:21:53;101238.41;;;17.40;61.28
9077;BME280;4574;51.072;17.174;2023-05-03T10:24:22;101233.94;;;16.57;54.28
9077;BME280;4574;51.072;17.174;2023-05-03T10:26:51;101241.00;;;17.16;63.97
9077;BME280;4574;51.072;17.174;2023-05-03T10:29:49;101249.94;;;17.48;60.80
9077;BME280;4574;51.072;17.174;2023-05-03T10:32:41;101243.09;;;17.46;57.69
9077;BME280;4574;51.072;17.174;2023-05-03T10:35:13;101237.56;;;17.47;60.87
9077;BME280;4574;51.072;17.174;2023-05-03T10:37:43;101229.03;;;17.59;61.13
9077;BME280;4574;51.072;17.174;2023-05-03T10:40:14;101238.75;;;17.68;59.96
9077;BME280;4574;51.072;17.174;2023-05-03T10:42:45;101235.72;;;17.48;58.87
9077;BME280;4574;51.072;17.174;2023-05-03T10:45:22;101246.56;;;17.38;59.50
9077;BME280;4574;51.072;17.174;2023-05-03T10:48:22;101235.22;;;17.52;56.79
9077;BME280;4574;51.072;17.174;2023-05-03T10:50:51;101243.09;;;17.46;51.88
9077;BME280;4574;51.072;17.174;2023-05-03T10:53:36;101235.56;;;16.92;52.96
9077;BME280;4574;51.072;17.174;2023-05-03T10:56:09;101243.19;;;16.79;54.37
9077;BME280;4574;51.072;17.174;2023-05-03T10:58:41;101242.84;;;16.74;54.82
9077;BME280;4574;51.072;17.174;2023-05-03T11:01:11;101229.38;;;16.91;56.97
9077;BME280;4574;51.072;17.174;2023-05-03T11:03:49;101242.34;;;17.20;53.75
9077;BME280;4574;51.072;17.174;2023-05-03T11:06:29;101239.41;;;17.47;54.88
9077;BME280;4574;51.072;17.174;2023-05-03T11:09:00;101233.88;;;17.72;54.98
9077;BME280;4574;51.072;17.174;2023-05-03T11:11:30;101229.03;;;17.67;51.02
9077;BME280;4574;51.072;17.174;2023-05-03T11:13:59;101226.88;;;17.87;54.87
9077;BME280;4574;51.072;17.174;2023-05-03T11:16:28;101238.34;;;18.19;55.66
9077;BME280;4574;51.072;17.174;2023-05-03T11:18:59;101228.59;;;18.42;50.79
9077;BME280;4574;51.072;17.174;2023-05-03T11:21:27;101230.22;;;18.59;52.99
9077;BME280;4574;51.072;17.174;2023-05-03T11:23:57;101237.88;;;18.70;52.75
9077;BME280;4574;51.072;17.174;2023-05-03T11:26:34;101231.19;;;18.12;47.77
9077;BME280;4574;51.072;17.174;2023-05-03T11:29:08;101226.31;;;18.07;50.95
9077;BME280;4574;51.072;17.174;2023-05-03T11:31:37;101227.28;;;18.22;50.02
9077;BME280;4574;51.072;17.174;2023-05-03T11:34:11;101238.00;;;18.22;50.44
9077;BME280;4574;51.072;17.174;2023-05-03T11:36:41;101230.19;;;18.67;51.29
9077;BME280;4574;51.072;17.174;2023-05-03T11:39:11;101232.22;;;18.73;46.20
9077;BME280;4574;51.072;17.174;2023-05-03T11:41:40;101224.84;;;18.97;46.29
9077;BME280;4574;51.072;17.174;2023-05-03T11:44:09;101220.53;;;18.88;45.38
9077;BME280;4574;51.072;17.174;2023-05-03T11:46:44;101237.38;;;18.75;48.53
9077;BME280;4574;51.072;17.174;2023-05-03T11:49:18;101234.94;;;18.49;46.31
9077;BME280;4574;51.072;17.174;2023-05-03T11:51:47;101228.41;;;18.52;48.06
9077;BME280;4574;51.072;17.174;2023-05-03T11:54:20;101236.88;;;18.79;45.53
9077;BME280;4574;51.072;17.174;2023-05-03T11:56:55;101236.84;;;19.17;48.74
9077;BME280;4574;51.072;17.174;2023-05-03T11:59:36;101227.38;;;19.52;45.74
9077;BME280;4574;51.072;17.174;2023-05-03T12:02:06;101227.81;;;19.41;46.69
9077;BME280;4574;51.072;17.174;2023-05-03T12:04:37;101226.28;;;19.83;45.96
9077;BME280;4574;51.072;17.174;2023-05-03T12:07:10;101233.41;;;19.76;45.03
9077;BME280;4574;51.072;17.174;2023-05-03T12:09:41;101229.63;;;19.85;46.00
9077;BME280;4574;51.072;17.174;2023-05-03T12:12:21;101240.09;;;19.80;45.50
9077;BME280;4574;51.072;17.174;2023-05-03T12:14:58;101232.03;;;19.80;45.45
9077;BME280;4574;51.072;17.174;2023-05-03T12:17:34;101229.25;;;19.29;43.09
9077;BME280;4574;51.072;17.174;2023-05-03T12:20:16;101224.47;;;19.39;45.10
9077;BME280;4574;51.072;17.174;2023-05-03T12:22:48;101229.16;;;19.82;48.23
9077;BME280;4574;51.072;17.174;2023-05-03T12:25:18;101226.19;;;20.14;46.85
9077;BME280;4574;51.072;17.174;2023-05-03T12:27:51;101214.34;;;20.51;43.88
9077;BME280;4574;51.072;17.174;2023-05-03T12:30:41;101219.81;;;20.58;44.06
9077;BME280;4574;51.072;17.174;2023-05-03T12:33:12;101225.38;;;20.85;44.46
9077;BME280;4574;51.072;17.174;2023-05-03T12:35:44;101222.75;;;21.06;42.27
9077;BME280;4574;51.072;17.174;2023-05-03T12:38:14;101215.69;;;21.05;40.93
9077;BME280;4574;51.072;17.174;2023-05-03T12:40:45;101216.09;;;21.23;41.82
9077;BME280;4574;51.072;17.174;2023-05-03T12:43:15;101215.19;;;20.52;38.73
9077;BME280;4574;51.072;17.174;2023-05-03T12:45:44;101215.97;;;20.96;42.29
9077;BME280;4574;51.072;17.174;2023-05-03T12:48:24;101209.03;;;20.87;40.80
9077;BME280;4574;51.072;17.174;2023-05-03T12:50:54;101205.41;;;21.30;41.26
9077;BME280;4574;51.072;17.174;2023-05-03T12:53:43;101195.22;;;21.11;40.30
9077;BME280;4574;51.072;17.174;2023-05-03T12:56:13;101197.47;;;21.07;40.77
9077;BME280;4574;51.072;17.174;2023-05-03T12:58:42;101195.84;;;21.27;41.47
9077;BME280;4574;51.072;17.174;2023-05-03T13:01:19;101178.13;;;21.39;41.18
9077;BME280;4574;51.072;17.174;2023-05-03T13:04:09;101191.72;;;21.73;40.19
9077;BME280;4574;51.072;17.174;2023-05-03T13:06:46;101195.38;;;21.86;40.79
9077;BME280;4574;51.072;17.174;2023-05-03T13:09:36;101185.34;;;22.08;38.74
9077;BME280;4574;51.072;17.174;2023-05-03T13:12:31;101191.91;;;21.92;39.16
9077;BME280;4574;51.072;17.174;2023-05-03T13:15:00;101191.66;;;22.15;39.26
9077;BME280;4574;51.072;17.174;2023-05-03T13:17:33;101185.19;;;22.37;39.24